Monarch Beach, California
Current Conditions -  °F | °C
As of 4:53 PM on Saturday 25 Oct 2014 (Local Time) from KSNA Reporting Station
Scattered Clouds Scattered Clouds  
Wind Chill: 76°   Ceiling: Unl
Heat Index: 76°   Visibility: 10mi
Dew Point: 59°   Wind: 5mph
Humidity: 56%   Direction: 250°WSW
Pressure: 29.99"   Gusts: NA
Location:  33.4774°N, 117.704°W
Report Text: KSNA 252353Z 25004KT 10SM FEW150 SCT250 24/15 A2999 RMK AO2 SLP154 T02440150 10272 20244 58011
Loading
Personal Weather Stations






























Interactive Weather Map
Tropical Storm Tracking
New forecast layout! Learn more

10-Day Weather Forecast

Advertisements
Track Severe Weather on mobile